createdAt,value
2018-05-08T00:00:56.037Z,1009.73
2018-05-08T00:01:55.984Z,1009.74
2018-05-08T00:02:55.923Z,1009.73
2018-05-08T00:03:55.969Z,1009.76
2018-05-08T00:04:55.968Z,1009.72
2018-05-08T00:05:55.844Z,1009.73
2018-05-08T00:06:55.895Z,1009.69
2018-05-08T00:07:55.888Z,1009.69
2018-05-08T00:08:55.809Z,1009.66
2018-05-08T00:09:55.815Z,1009.67
2018-05-08T00:10:55.772Z,1009.68
2018-05-08T00:11:55.709Z,1009.66
2018-05-08T00:12:55.736Z,1009.66
2018-05-08T00:13:55.734Z,1009.67
2018-05-08T00:14:55.714Z,1009.65
2018-05-08T00:15:55.643Z,1009.56
2018-05-08T00:16:55.576Z,1009.62
2018-05-08T00:17:55.626Z,1009.56
2018-05-08T00:18:55.591Z,1009.57
2018-05-08T00:19:55.517Z,1009.55
2018-05-08T00:20:55.589Z,1009.51
2018-05-08T00:21:55.518Z,1009.51
2018-05-08T00:22:55.457Z,1009.53
2018-05-08T00:23:55.536Z,1009.50
2018-05-08T00:24:55.453Z,1009.52
2018-05-08T00:25:55.360Z,1009.49
2018-05-08T00:26:55.395Z,1009.51
2018-05-08T00:27:55.422Z,1009.49
2018-05-08T00:28:55.296Z,1009.50
2018-05-08T00:29:55.336Z,1009.49
2018-05-08T00:30:55.332Z,1009.44
2018-05-08T00:31:55.249Z,1009.48
2018-05-08T00:32:55.255Z,1009.46
2018-05-08T00:33:55.236Z,1009.41
2018-05-08T00:34:55.140Z,1009.38
2018-05-08T00:35:55.242Z,1009.40
2018-05-08T00:36:55.093Z,1009.39
2018-05-08T00:37:55.175Z,1009.40
2018-05-08T00:38:55.075Z,1009.39
2018-05-08T00:39:55.036Z,1009.36
2018-05-08T00:40:55.105Z,1009.35
2018-05-08T00:41:54.968Z,1009.39
2018-05-08T00:42:55.021Z,1009.40
2018-05-08T00:43:54.965Z,1009.32
2018-05-08T00:44:54.889Z,1009.36
2018-05-08T00:45:54.937Z,1009.34
2018-05-08T00:46:54.843Z,1009.36
2018-05-08T00:47:54.853Z,1009.34
2018-05-08T00:48:54.923Z,1009.36
2018-05-08T00:49:54.761Z,1009.33
2018-05-08T00:50:54.785Z,1009.38
2018-05-08T00:51:54.775Z,1009.34
2018-05-08T00:52:54.788Z,1009.37
2018-05-08T00:53:54.757Z,1009.33
2018-05-08T00:54:54.645Z,1009.35
2018-05-08T00:55:54.689Z,1009.34
2018-05-08T00:56:54.705Z,1009.32
2018-05-08T00:57:54.568Z,1009.31
2018-05-08T00:58:54.645Z,1009.30
2018-05-08T00:59:54.608Z,1009.32
2018-05-08T01:00:54.488Z,1009.30
2018-05-08T01:01:54.511Z,1009.30
2018-05-08T01:02:54.535Z,1009.27
2018-05-08T01:03:54.433Z,1009.25
2018-05-08T01:04:54.455Z,1009.25
2018-05-08T01:05:54.377Z,1009.27
2018-05-08T01:06:54.351Z,1009.22
2018-05-08T01:07:54.322Z,1009.21
2018-05-08T01:08:54.289Z,1009.22
2018-05-08T01:09:54.278Z,1009.21
2018-05-08T01:10:54.241Z,1009.19
2018-05-08T01:11:54.222Z,1009.23
2018-05-08T01:12:54.195Z,1009.21
2018-05-08T01:13:54.171Z,1009.20
2018-05-08T01:14:54.141Z,1009.21
2018-05-08T01:15:54.118Z,1009.20
2018-05-08T01:16:54.090Z,1009.11
2018-05-08T01:17:54.073Z,1009.15
2018-05-08T01:18:54.044Z,1009.18
2018-05-08T01:19:54.019Z,1009.19
2018-05-08T01:20:53.988Z,1009.18
2018-05-08T01:21:53.958Z,1009.18
2018-05-08T01:22:53.933Z,1009.20
2018-05-08T01:23:53.918Z,1009.20
2018-05-08T01:24:53.903Z,1009.17
2018-05-08T01:25:53.868Z,1009.19
2018-05-08T01:26:53.843Z,1009.19
2018-05-08T01:27:53.815Z,1009.16
2018-05-08T01:28:53.785Z,1009.17
2018-05-08T01:29:53.758Z,1009.15
2018-05-08T01:30:53.743Z,1009.13
2018-05-08T01:31:53.715Z,1009.13
2018-05-08T01:32:53.682Z,1009.08
2018-05-08T01:33:53.656Z,1009.10
2018-05-08T01:34:53.635Z,1009.09
2018-05-08T01:35:53.610Z,1009.11
2018-05-08T01:36:53.599Z,1009.11
2018-05-08T01:37:53.569Z,1009.10
2018-05-08T01:38:53.536Z,1009.09
2018-05-08T01:39:53.522Z,1009.09
2018-05-08T01:40:53.558Z,1009.09
2018-05-08T01:41:53.452Z,1009.10
2018-05-08T01:42:53.449Z,1009.07
2018-05-08T01:43:53.427Z,1009.09
2018-05-08T01:44:53.384Z,1009.07
2018-05-08T01:45:53.356Z,1009.07
2018-05-08T01:46:53.337Z,1009.09
2018-05-08T01:47:53.300Z,1009.04
2018-05-08T01:48:53.276Z,1009.07
2018-05-08T01:49:53.269Z,1009.06
2018-05-08T01:50:53.229Z,1009.08
2018-05-08T01:51:53.202Z,1009.06
2018-05-08T01:52:53.172Z,1009.02
2018-05-08T01:53:53.155Z,1009.01
2018-05-08T01:54:53.124Z,1009.01
2018-05-08T01:55:55.620Z,1009.01
2018-05-08T01:56:53.072Z,1008.99
2018-05-08T01:57:53.049Z,1008.98
2018-05-08T01:58:53.018Z,1008.99
2018-05-08T01:59:53.009Z,1008.98
2018-05-08T02:00:52.971Z,1008.99
2018-05-08T02:01:52.949Z,1008.96
2018-05-08T02:02:52.919Z,1008.99
2018-05-08T02:03:52.896Z,1008.97
2018-05-08T02:04:52.870Z,1008.98
2018-05-08T02:05:52.842Z,1008.96
2018-05-08T02:06:52.819Z,1008.91
2018-05-08T02:07:52.789Z,1008.90
2018-05-08T02:08:52.763Z,1008.88
2018-05-08T02:09:52.737Z,1008.85
2018-05-08T02:10:52.712Z,1008.86
2018-05-08T02:11:52.686Z,1008.84
2018-05-08T02:12:52.660Z,1008.82
2018-05-08T02:13:52.641Z,1008.84
2018-05-08T02:14:52.621Z,1008.85
2018-05-08T02:15:52.588Z,1008.81
2018-05-08T02:16:52.554Z,1008.84
2018-05-08T02:17:52.533Z,1008.86
2018-05-08T02:18:52.518Z,1008.87
2018-05-08T02:19:52.480Z,1008.83
2018-05-08T02:20:52.453Z,1008.83
2018-05-08T02:21:52.421Z,1008.81
2018-05-08T02:22:52.399Z,1008.80
2018-05-08T02:23:52.439Z,1008.84
2018-05-08T02:24:52.351Z,1008.81
2018-05-08T02:25:52.383Z,1008.79
2018-05-08T02:26:52.320Z,1008.80
2018-05-08T02:27:52.276Z,1008.80
2018-05-08T02:28:52.247Z,1008.80
2018-05-08T02:29:52.232Z,1008.79
2018-05-08T02:30:52.201Z,1008.80
2018-05-08T02:31:52.168Z,1008.76
2018-05-08T02:32:52.150Z,1008.76
2018-05-08T02:33:52.117Z,1008.77
2018-05-08T02:34:52.090Z,1008.76
2018-05-08T02:35:52.154Z,1008.74
2018-05-08T02:36:52.038Z,1008.74
2018-05-08T02:37:52.013Z,1008.76
2018-05-08T02:38:51.992Z,1008.81
2018-05-08T02:39:51.963Z,1008.75
2018-05-08T02:40:51.935Z,1008.75
2018-05-08T02:41:51.905Z,1008.77
2018-05-08T02:42:51.876Z,1008.75
2018-05-08T02:43:51.851Z,1008.77
2018-05-08T02:44:51.835Z,1008.73
2018-05-08T02:45:51.812Z,1008.74
2018-05-08T02:46:51.788Z,1008.74
2018-05-08T02:47:51.757Z,1008.70
2018-05-08T02:48:51.732Z,1008.71
2018-05-08T02:49:51.701Z,1008.70
2018-05-08T02:50:51.674Z,1008.71
2018-05-08T02:51:51.648Z,1008.68
2018-05-08T02:52:51.623Z,1008.66
2018-05-08T02:53:51.592Z,1008.70
2018-05-08T02:54:51.579Z,1008.65
2018-05-08T02:55:51.546Z,1008.64
2018-05-08T02:56:51.516Z,1008.63
2018-05-08T02:57:51.500Z,1008.62
2018-05-08T02:58:51.471Z,1008.61
2018-05-08T02:59:51.439Z,1008.61
2018-05-08T03:00:51.410Z,1008.58
2018-05-08T03:01:51.382Z,1008.63
2018-05-08T03:02:51.363Z,1008.55
2018-05-08T03:03:51.336Z,1008.57
2018-05-08T03:04:51.309Z,1008.60
2018-05-08T03:05:51.295Z,1008.54
2018-05-08T03:06:51.252Z,1008.58
2018-05-08T03:07:51.237Z,1008.58
2018-05-08T03:08:51.205Z,1008.56
2018-05-08T03:09:51.179Z,1008.53
2018-05-08T03:10:51.163Z,1008.52
2018-05-08T03:11:51.127Z,1008.53
2018-05-08T03:12:51.108Z,1008.51
2018-05-08T03:13:51.067Z,1008.50
2018-05-08T03:14:51.042Z,1008.56
2018-05-08T03:15:51.031Z,1008.59
2018-05-08T03:16:50.998Z,1008.58
2018-05-08T03:17:50.974Z,1008.57
2018-05-08T03:18:50.949Z,1008.54
2018-05-08T03:19:50.920Z,1008.57
2018-05-08T03:20:50.887Z,1008.58
2018-05-08T03:21:50.873Z,1008.55
2018-05-08T03:22:50.855Z,1008.58
2018-05-08T03:23:50.813Z,1008.57
2018-05-08T03:24:50.782Z,1008.57
2018-05-08T03:25:50.758Z,1008.57
2018-05-08T03:26:50.732Z,1008.53
2018-05-08T03:27:50.709Z,1008.56
2018-05-08T03:28:50.679Z,1008.53
2018-05-08T03:29:50.658Z,1008.50
2018-05-08T03:30:50.630Z,1008.48
2018-05-08T03:31:50.602Z,1008.51
2018-05-08T03:32:50.569Z,1008.47
2018-05-08T03:33:50.546Z,1008.49
2018-05-08T03:34:50.525Z,1008.46
2018-05-08T03:35:50.499Z,1008.48
2018-05-08T03:36:50.470Z,1008.48
2018-05-08T03:37:50.447Z,1008.48
2018-05-08T03:38:50.409Z,1008.43
2018-05-08T03:39:50.388Z,1008.45
2018-05-08T03:40:50.368Z,1008.41
2018-05-08T03:41:50.338Z,1008.42
2018-05-08T03:42:50.310Z,1008.41
2018-05-08T03:43:50.283Z,1008.38
2018-05-08T03:44:50.260Z,1008.35
2018-05-08T03:45:50.225Z,1008.35
2018-05-08T03:46:50.203Z,1008.33
2018-05-08T03:47:50.176Z,1008.36
2018-05-08T03:48:50.154Z,1008.31
2018-05-08T03:49:50.131Z,1008.34
2018-05-08T03:50:50.106Z,1008.33
2018-05-08T03:51:50.075Z,1008.34
2018-05-08T03:52:50.049Z,1008.32
2018-05-08T03:53:50.014Z,1008.34
2018-05-08T03:54:49.996Z,1008.32
2018-05-08T03:55:50.027Z,1008.31
2018-05-08T03:56:49.945Z,1008.31
2018-05-08T03:57:49.916Z,1008.33
2018-05-08T03:58:49.916Z,1008.29
2018-05-08T03:59:49.912Z,1008.29
2018-05-08T04:00:49.834Z,1008.24
2018-05-08T04:01:49.892Z,1008.27
2018-05-08T04:02:49.784Z,1008.28
2018-05-08T04:03:49.755Z,1008.29
2018-05-08T04:04:49.744Z,1008.31
2018-05-08T04:05:49.701Z,1008.29
2018-05-08T04:06:49.680Z,1008.29
2018-05-08T04:07:49.656Z,1008.32
2018-05-08T04:08:49.630Z,1008.33
2018-05-08T04:09:49.598Z,1008.26
2018-05-08T04:10:49.583Z,1008.28
2018-05-08T04:11:49.571Z,1008.29
2018-05-08T04:12:49.521Z,1008.26
2018-05-08T04:13:49.498Z,1008.26
2018-05-08T04:14:49.472Z,1008.24
2018-05-08T04:15:49.439Z,1008.28
2018-05-08T04:16:49.416Z,1008.23
2018-05-08T04:17:49.392Z,1008.20
2018-05-08T04:18:49.354Z,1008.21
2018-05-08T04:19:49.332Z,1008.23
2018-05-08T04:20:49.309Z,1008.22
2018-05-08T04:21:49.285Z,1008.19
2018-05-08T04:22:49.260Z,1008.17
2018-05-08T04:23:49.235Z,1008.19
2018-05-08T04:24:49.201Z,1008.17
2018-05-08T04:25:49.169Z,1008.21
2018-05-08T04:26:49.163Z,1008.16
2018-05-08T04:27:49.141Z,1008.16
2018-05-08T04:28:49.100Z,1008.15
2018-05-08T04:29:49.068Z,1008.16
2018-05-08T04:30:49.050Z,1008.15
2018-05-08T04:31:49.014Z,1008.16
2018-05-08T04:32:48.991Z,1008.14
2018-05-08T04:33:48.964Z,1008.15
2018-05-08T04:34:48.939Z,1008.12
2018-05-08T04:35:48.914Z,1008.17
2018-05-08T04:36:48.889Z,1008.17
2018-05-08T04:37:48.858Z,1008.15
2018-05-08T04:38:48.832Z,1008.12
2018-05-08T04:39:48.805Z,1008.11
2018-05-08T04:40:48.780Z,1008.12
2018-05-08T04:41:48.761Z,1008.09
2018-05-08T04:42:48.722Z,1008.09
2018-05-08T04:43:48.695Z,1008.10
2018-05-08T04:44:48.675Z,1008.08
2018-05-08T04:45:48.657Z,1008.11
2018-05-08T04:46:48.630Z,1008.10
2018-05-08T04:47:48.697Z,1008.09
2018-05-08T04:48:48.581Z,1008.11
2018-05-08T04:49:48.665Z,1008.10
2018-05-08T04:50:48.569Z,1008.10
2018-05-08T04:51:48.575Z,1008.07
2018-05-08T04:52:48.533Z,1008.12
2018-05-08T04:53:48.563Z,1008.11
2018-05-08T04:54:48.499Z,1008.13
2018-05-08T04:55:48.511Z,1008.14
2018-05-08T04:56:48.458Z,1008.09
2018-05-08T04:57:48.404Z,1008.06
2018-05-08T04:58:48.373Z,1008.07
2018-05-08T04:59:48.300Z,1008.06
2018-05-08T05:00:48.361Z,1008.09
2018-05-08T05:01:48.273Z,1008.07
2018-05-08T05:02:48.301Z,1008.10
2018-05-08T05:03:48.210Z,1008.05
2018-05-08T05:04:48.225Z,1008.02
2018-05-08T05:05:48.135Z,1008.06
2018-05-08T05:06:48.173Z,1008.03
2018-05-08T05:07:48.086Z,1008.02
2018-05-08T05:08:48.167Z,1008.00
2018-05-08T05:09:48.069Z,1008.02
2018-05-08T05:10:48.050Z,1008.00
2018-05-08T05:11:47.976Z,1007.97
2018-05-08T05:12:48.000Z,1007.99
2018-05-08T05:13:47.976Z,1007.97
2018-05-08T05:14:47.942Z,1007.99
2018-05-08T05:15:47.910Z,1007.96
2018-05-08T05:16:47.906Z,1007.97
2018-05-08T05:17:47.877Z,1007.97
2018-05-08T05:18:47.831Z,1007.99
2018-05-08T05:19:47.812Z,1007.98
2018-05-08T05:20:47.788Z,1007.95
2018-05-08T05:21:47.760Z,1007.96
2018-05-08T05:22:47.709Z,1007.96
2018-05-08T05:23:47.724Z,1008.00
2018-05-08T05:24:47.669Z,1007.98
2018-05-08T05:25:47.649Z,1007.98
2018-05-08T05:26:47.641Z,1007.94
2018-05-08T05:27:47.620Z,1007.97
2018-05-08T05:28:47.590Z,1007.95
2018-05-08T05:29:47.536Z,1008.00
2018-05-08T05:30:47.567Z,1007.94
2018-05-08T05:31:47.493Z,1007.97
2018-05-08T05:32:47.475Z,1007.97
2018-05-08T05:33:47.422Z,1007.96
2018-05-08T05:34:47.416Z,1008.01
2018-05-08T05:35:47.334Z,1007.98
2018-05-08T05:36:47.360Z,1007.94
2018-05-08T05:37:47.341Z,1007.91
2018-05-08T05:38:47.339Z,1007.92
2018-05-08T05:39:47.292Z,1007.90
2018-05-08T05:40:47.272Z,1007.93
2018-05-08T05:41:47.233Z,1007.89
2018-05-08T05:42:47.241Z,1007.91
2018-05-08T05:43:47.184Z,1007.92
2018-05-08T05:44:47.155Z,1007.87
2018-05-08T05:45:47.153Z,1007.92
2018-05-08T05:46:47.093Z,1007.88
2018-05-08T05:47:47.140Z,1007.89
2018-05-08T05:48:47.097Z,1007.88
2018-05-08T05:49:47.021Z,1007.88
2018-05-08T05:50:47.002Z,1007.92
2018-05-08T05:51:46.989Z,1007.86
2018-05-08T05:52:46.956Z,1007.84
2018-05-08T05:53:46.926Z,1007.86
2018-05-08T05:54:46.895Z,1007.83
2018-05-08T05:55:46.885Z,1007.81
2018-05-08T05:56:46.854Z,1007.84
2018-05-08T05:57:46.845Z,1007.83
2018-05-08T05:58:46.829Z,1007.84
2018-05-08T05:59:47.699Z,1007.82
2018-05-08T06:00:46.748Z,1007.84
2018-05-08T06:01:46.728Z,1007.85
2018-05-08T06:02:46.676Z,1007.81
2018-05-08T06:03:46.684Z,1007.81
2018-05-08T06:04:46.632Z,1007.82
2018-05-08T06:05:46.566Z,1007.80
2018-05-08T06:06:46.582Z,1007.81
2018-05-08T06:07:46.563Z,1007.76
2018-05-08T06:08:46.537Z,1007.78
2018-05-08T06:09:46.517Z,1007.81
2018-05-08T06:10:46.517Z,1007.84
2018-05-08T06:11:46.489Z,1007.78
2018-05-08T06:12:46.431Z,1007.78
2018-05-08T06:13:46.443Z,1007.79
2018-05-08T06:14:46.392Z,1007.72
2018-05-08T06:15:46.353Z,1007.77
2018-05-08T06:16:46.351Z,1007.74
2018-05-08T06:17:46.310Z,1007.71
2018-05-08T06:18:46.278Z,1007.68
2018-05-08T06:19:46.251Z,1007.68
2018-05-08T06:20:46.232Z,1007.70
2018-05-08T06:21:46.172Z,1007.72
2018-05-08T06:22:46.362Z,1007.68
2018-05-08T06:23:46.181Z,1007.68
2018-05-08T06:24:46.140Z,1007.66
2018-05-08T06:25:46.078Z,1007.72
2018-05-08T06:26:46.043Z,1007.64
2018-05-08T06:27:46.059Z,1007.69
2018-05-08T06:28:46.030Z,1007.69
2018-05-08T06:29:46.247Z,1007.73
2018-05-08T06:30:46.123Z,1007.69
2018-05-08T06:31:45.960Z,1007.67
2018-05-08T06:32:45.939Z,1007.72
2018-05-08T06:33:45.915Z,1007.71
2018-05-08T06:34:45.877Z,1007.69
2018-05-08T06:35:45.810Z,1007.69
2018-05-08T06:36:45.855Z,1007.68
2018-05-08T06:37:45.805Z,1007.68
2018-05-08T06:38:45.780Z,1007.64
2018-05-08T06:39:45.765Z,1007.61
2018-05-08T06:40:45.753Z,1007.64
2018-05-08T06:41:45.708Z,1007.58
2018-05-08T06:42:45.660Z,1007.65
2018-05-08T06:43:45.672Z,1007.61
2018-05-08T06:44:45.650Z,1007.59
2018-05-08T06:45:45.624Z,1007.65
2018-05-08T06:46:45.688Z,1007.62
2018-05-08T06:47:45.542Z,1007.61
2018-05-08T06:48:45.550Z,1007.61
2018-05-08T06:49:45.476Z,1007.59
2018-05-08T06:50:45.504Z,1007.59
2018-05-08T06:51:45.452Z,1007.62
2018-05-08T06:52:45.457Z,1007.62
2018-05-08T06:53:45.440Z,1007.63
2018-05-08T06:54:45.395Z,1007.60
2018-05-08T06:55:45.386Z,1007.63
2018-05-08T06:56:45.339Z,1007.61
2018-05-08T06:57:45.317Z,1007.63
2018-05-08T06:58:45.290Z,1007.62
2018-05-08T06:59:45.291Z,1007.55
2018-05-08T07:00:45.254Z,1007.57
2018-05-08T07:01:45.223Z,1007.56
2018-05-08T07:02:45.196Z,1007.58
2018-05-08T07:03:45.166Z,1007.54
2018-05-08T07:04:45.154Z,1007.57
2018-05-08T07:05:45.142Z,1007.55
2018-05-08T07:06:45.072Z,1007.55
2018-05-08T07:07:45.081Z,1007.57
2018-05-08T07:08:45.055Z,1007.54
2018-05-08T07:09:45.028Z,1007.57
2018-05-08T07:10:44.994Z,1007.56
2018-05-08T07:11:44.970Z,1007.54
2018-05-08T07:12:44.948Z,1007.50
2018-05-08T07:13:44.926Z,1007.52
2018-05-08T07:14:44.916Z,1007.55
2018-05-08T07:15:45.059Z,1007.52
2018-05-08T07:16:44.842Z,1007.53
2018-05-08T07:17:44.835Z,1007.58
2018-05-08T07:18:44.806Z,1007.50
2018-05-08T07:19:44.791Z,1007.52
2018-05-08T07:20:44.751Z,1007.50
2018-05-08T07:21:44.749Z,1007.51
2018-05-08T07:22:44.705Z,1007.51
2018-05-08T07:23:44.690Z,1007.50
2018-05-08T07:24:44.676Z,1007.52
2018-05-08T07:25:44.620Z,1007.51
2018-05-08T07:26:44.599Z,1007.51
2018-05-08T07:27:46.223Z,1007.49
2018-05-08T07:28:44.556Z,1007.49
2018-05-08T07:29:44.541Z,1007.49
2018-05-08T07:30:44.565Z,1007.51
2018-05-08T07:31:44.499Z,1007.46
2018-05-08T07:32:44.472Z,1007.51
2018-05-08T07:33:44.474Z,1007.48
2018-05-08T07:34:44.430Z,1007.48
2018-05-08T07:35:44.394Z,1007.49
2018-05-08T07:36:44.374Z,1007.52
2018-05-08T07:37:44.371Z,1007.48
2018-05-08T07:38:44.319Z,1007.50
2018-05-08T07:39:44.316Z,1007.48
2018-05-08T07:40:44.270Z,1007.50
2018-05-08T07:41:44.258Z,1007.45
2018-05-08T07:42:44.229Z,1007.47
2018-05-08T07:43:44.197Z,1007.43
2018-05-08T07:44:44.188Z,1007.45
2018-05-08T07:45:44.169Z,1007.45
2018-05-08T07:46:44.137Z,1007.48
2018-05-08T07:47:44.097Z,1007.46
2018-05-08T07:48:44.093Z,1007.48
2018-05-08T07:49:44.065Z,1007.54
2018-05-08T07:50:44.044Z,1007.48
2018-05-08T07:51:44.031Z,1007.50
2018-05-08T07:52:43.993Z,1007.50
2018-05-08T07:53:43.983Z,1007.51
2018-05-08T07:54:43.948Z,1007.47
2018-05-08T07:55:43.960Z,1007.43
2018-05-08T07:56:43.920Z,1007.48
2018-05-08T07:57:43.876Z,1007.46
2018-05-08T07:58:43.843Z,1007.43
2018-05-08T07:59:43.828Z,1007.43
2018-05-08T08:00:43.813Z,1007.42
2018-05-08T08:01:43.804Z,1007.42
2018-05-08T08:02:43.759Z,1007.39
2018-05-08T08:03:43.752Z,1007.39
2018-05-08T08:04:43.714Z,1007.35
2018-05-08T08:05:43.701Z,1007.40
2018-05-08T08:06:43.674Z,1007.41
2018-05-08T08:07:43.669Z,1007.43
2018-05-08T08:08:43.650Z,1007.42
2018-05-08T08:09:43.602Z,1007.44
2018-05-08T08:10:43.583Z,1007.41
2018-05-08T08:11:43.561Z,1007.38
2018-05-08T08:12:43.479Z,1007.38
2018-05-08T08:13:43.500Z,1007.32
2018-05-08T08:14:43.480Z,1007.36
2018-05-08T08:15:43.489Z,1007.36
2018-05-08T08:16:43.444Z,1007.36
2018-05-08T08:17:43.411Z,1007.32
2018-05-08T08:18:43.402Z,1007.33
2018-05-08T08:19:43.366Z,1007.31
2018-05-08T08:20:43.347Z,1007.26
2018-05-08T08:21:43.334Z,1007.26
2018-05-08T08:22:43.334Z,1007.26
2018-05-08T08:23:43.360Z,1007.22
2018-05-08T08:24:43.269Z,1007.23
2018-05-08T08:25:43.228Z,1007.25
2018-05-08T08:26:43.243Z,1007.23
2018-05-08T08:27:43.178Z,1007.22
2018-05-08T08:28:43.190Z,1007.18
2018-05-08T08:29:43.207Z,1007.19
2018-05-08T08:30:43.135Z,1007.19
2018-05-08T08:31:43.114Z,1007.14
2018-05-08T08:32:43.111Z,1007.14
2018-05-08T08:33:43.044Z,1007.18
2018-05-08T08:34:43.061Z,1007.16
2018-05-08T08:35:43.012Z,1007.14
2018-05-08T08:36:42.978Z,1007.16
2018-05-08T08:37:42.926Z,1007.16
2018-05-08T08:38:42.901Z,1007.12
2018-05-08T08:39:42.881Z,1007.15
2018-05-08T08:40:42.852Z,1007.15
2018-05-08T08:41:42.829Z,1007.16
2018-05-08T08:42:42.818Z,1007.11
2018-05-08T08:43:42.790Z,1007.12
2018-05-08T08:44:42.764Z,1007.15
2018-05-08T08:45:42.742Z,1007.09
2018-05-08T08:46:42.719Z,1007.10
2018-05-08T08:47:42.906Z,1007.10
2018-05-08T08:48:42.692Z,1007.09
2018-05-08T08:49:42.667Z,1007.05
2018-05-08T08:50:42.638Z,1007.06
2018-05-08T08:51:42.620Z,1007.06
2018-05-08T08:52:42.590Z,1007.08
2018-05-08T08:53:42.577Z,1007.04
2018-05-08T08:54:42.571Z,1007.02
2018-05-08T08:55:42.522Z,1007.03
2018-05-08T08:56:42.513Z,1007.01
2018-05-08T08:57:42.491Z,1007.03
2018-05-08T08:58:42.465Z,1007.01
2018-05-08T08:59:42.445Z,1007.03
2018-05-08T09:00:42.424Z,1006.99
2018-05-08T09:01:42.402Z,1007.00
2018-05-08T09:02:42.382Z,1007.02
2018-05-08T09:03:42.357Z,1007.06
2018-05-08T09:04:42.329Z,1007.04
2018-05-08T09:05:42.319Z,1007.02
2018-05-08T09:06:42.288Z,1007.01
2018-05-08T09:07:42.274Z,1006.98
2018-05-08T09:08:42.250Z,1006.98
2018-05-08T09:09:42.228Z,1006.93
2018-05-08T09:10:42.210Z,1006.94
2018-05-08T09:11:42.192Z,1006.94
2018-05-08T09:12:42.173Z,1006.89
2018-05-08T09:13:42.139Z,1006.88
2018-05-08T09:14:42.123Z,1006.87
2018-05-08T09:15:42.104Z,1006.87
2018-05-08T09:16:42.079Z,1006.84
2018-05-08T09:17:42.060Z,1006.90
2018-05-08T09:18:42.040Z,1006.85
2018-05-08T09:19:42.067Z,1006.83
2018-05-08T09:20:41.999Z,1006.84
2018-05-08T09:21:41.977Z,1006.81
2018-05-08T09:22:41.967Z,1006.78
2018-05-08T09:23:41.945Z,1006.76
2018-05-08T09:24:41.911Z,1006.72
2018-05-08T09:25:41.895Z,1006.78
2018-05-08T09:26:41.869Z,1006.74
2018-05-08T09:27:41.926Z,1006.74
2018-05-08T09:28:41.841Z,1006.68
2018-05-08T09:29:41.821Z,1006.68
2018-05-08T09:30:41.795Z,1006.61
2018-05-08T09:31:41.768Z,1006.63
2018-05-08T09:32:41.766Z,1006.65
2018-05-08T09:33:41.733Z,1006.62
2018-05-08T09:34:41.722Z,1006.61
2018-05-08T09:35:41.692Z,1006.58
2018-05-08T09:36:41.663Z,1006.56
2018-05-08T09:37:41.647Z,1006.55
2018-05-08T09:38:41.655Z,1006.53
2018-05-08T09:39:41.607Z,1006.50
2018-05-08T09:40:41.592Z,1006.47
2018-05-08T09:41:41.585Z,1006.45
2018-05-08T09:42:41.551Z,1006.44
2018-05-08T09:43:41.526Z,1006.41
2018-05-08T09:44:41.508Z,1006.44
2018-05-08T09:45:41.485Z,1006.39
2018-05-08T09:46:41.474Z,1006.35
2018-05-08T09:47:41.453Z,1006.34
2018-05-08T09:48:41.424Z,1006.33
2018-05-08T09:49:41.409Z,1006.32
2018-05-08T09:50:41.443Z,1006.33
2018-05-08T09:51:41.367Z,1006.29
2018-05-08T09:52:41.349Z,1006.28
2018-05-08T09:53:41.339Z,1006.27
2018-05-08T09:54:41.306Z,1006.28
2018-05-08T09:55:41.330Z,1006.29
2018-05-08T09:56:41.260Z,1006.27
2018-05-08T09:57:41.243Z,1006.23
2018-05-08T09:58:41.224Z,1006.29
2018-05-08T09:59:41.200Z,1006.25
2018-05-08T10:00:41.190Z,1006.23
2018-05-08T10:01:41.167Z,1006.22
2018-05-08T10:02:41.157Z,1006.18
2018-05-08T10:03:41.198Z,1006.11
2018-05-08T10:04:41.118Z,1006.09
2018-05-08T10:05:41.088Z,1006.14
2018-05-08T10:06:41.092Z,1006.11
2018-05-08T10:07:41.054Z,1006.10
2018-05-08T10:08:41.034Z,1006.06
2018-05-08T10:09:41.007Z,1006.07
2018-05-08T10:10:40.999Z,1006.05
2018-05-08T10:11:40.971Z,1006.09
2018-05-08T10:12:40.958Z,1006.05
2018-05-08T10:13:40.942Z,1006.00
2018-05-08T10:14:40.910Z,1006.00
2018-05-08T10:15:40.925Z,1005.97
2018-05-08T10:16:40.868Z,1005.93
2018-05-08T10:17:40.857Z,1005.89
2018-05-08T10:18:40.840Z,1005.94
2018-05-08T10:19:40.828Z,1005.95
2018-05-08T10:20:40.839Z,1005.93
2018-05-08T10:21:40.785Z,1005.94
2018-05-08T10:22:40.770Z,1005.98
2018-05-08T10:23:40.734Z,1006.02
2018-05-08T10:24:40.734Z,1005.92
2018-05-08T10:25:40.704Z,1005.92
2018-05-08T10:26:40.717Z,1005.92
2018-05-08T10:27:40.670Z,1005.92
2018-05-08T10:28:40.644Z,1005.91
2018-05-08T10:29:40.624Z,1005.89
2018-05-08T10:30:40.609Z,1005.89
2018-05-08T10:31:40.584Z,1005.90
2018-05-08T10:32:40.571Z,1005.88
2018-05-08T10:33:40.566Z,1005.85
2018-05-08T10:34:40.599Z,1005.83
2018-05-08T10:35:40.513Z,1005.76
2018-05-08T10:36:40.495Z,1005.75
2018-05-08T10:37:40.478Z,1005.75
2018-05-08T10:38:40.512Z,1005.76
2018-05-08T10:39:40.441Z,1005.76
2018-05-08T10:40:40.424Z,1005.72
2018-05-08T10:41:40.403Z,1005.81
2018-05-08T10:42:40.436Z,1005.75
2018-05-08T10:43:40.387Z,1005.74
2018-05-08T10:44:40.346Z,1005.76
2018-05-08T10:45:40.328Z,1005.78
2018-05-08T10:46:40.310Z,1005.70
2018-05-08T10:47:40.290Z,1005.66
2018-05-08T10:48:40.283Z,1005.65
2018-05-08T10:49:40.254Z,1005.59
2018-05-08T10:50:40.236Z,1005.58
2018-05-08T10:51:40.215Z,1005.57
2018-05-08T10:52:40.198Z,1005.51
2018-05-08T10:53:40.178Z,1005.52
2018-05-08T10:54:40.159Z,1005.48
2018-05-08T10:55:40.179Z,1005.50
2018-05-08T10:56:40.122Z,1005.53
2018-05-08T10:57:40.126Z,1005.52
2018-05-08T10:58:40.093Z,1005.56
2018-05-08T10:59:40.074Z,1005.54
2018-05-08T11:00:40.048Z,1005.53
2018-05-08T11:01:40.059Z,1005.55
2018-05-08T11:02:40.016Z,1005.48
2018-05-08T11:03:40.004Z,1005.49
2018-05-08T11:04:39.982Z,1005.47
2018-05-08T11:05:39.961Z,1005.44
2018-05-08T11:06:39.940Z,1005.42
2018-05-08T11:07:39.930Z,1005.45
2018-05-08T11:08:39.907Z,1005.45
2018-05-08T11:09:39.895Z,1005.45
2018-05-08T11:10:39.984Z,1005.44
2018-05-08T11:11:39.857Z,1005.46
2018-05-08T11:12:39.840Z,1005.39
2018-05-08T11:13:39.836Z,1005.39
2018-05-08T11:14:39.806Z,1005.35
2018-05-08T11:15:39.820Z,1005.33
2018-05-08T11:16:39.783Z,1005.28
2018-05-08T11:17:39.757Z,1005.33
2018-05-08T11:18:39.735Z,1005.35
2018-05-08T11:19:39.714Z,1005.31
2018-05-08T11:20:39.705Z,1005.31
2018-05-08T11:21:39.680Z,1005.36
2018-05-08T11:22:39.664Z,1005.35
2018-05-08T11:23:39.649Z,1005.35
2018-05-08T11:24:39.620Z,1005.38
2018-05-08T11:25:39.600Z,1005.34
2018-05-08T11:26:39.780Z,1005.31
2018-05-08T11:27:39.570Z,1005.28
2018-05-08T11:28:39.552Z,1005.21
2018-05-08T11:29:39.544Z,1005.26
2018-05-08T11:30:39.519Z,1005.26
2018-05-08T11:31:39.504Z,1005.18
2018-05-08T11:32:39.486Z,1005.20
2018-05-08T11:33:39.474Z,1005.19
2018-05-08T11:34:39.451Z,1005.20
2018-05-08T11:35:39.460Z,1005.17
2018-05-08T11:36:39.461Z,1005.16
2018-05-08T11:37:39.472Z,1005.14
2018-05-08T11:38:39.384Z,1005.13
2018-05-08T11:39:39.373Z,1005.15
2018-05-08T11:40:39.359Z,1005.14
2018-05-08T11:41:39.349Z,1005.12
2018-05-08T11:42:39.326Z,1005.07
2018-05-08T11:43:39.307Z,1005.07
2018-05-08T11:44:39.312Z,1005.07
2018-05-08T11:45:39.278Z,1005.08
2018-05-08T11:46:39.263Z,1005.09
2018-05-08T11:47:39.248Z,1005.12
2018-05-08T11:48:39.255Z,1005.10
2018-05-08T11:49:39.230Z,1005.08
2018-05-08T11:50:39.215Z,1005.06
2018-05-08T11:51:39.220Z,1005.07
2018-05-08T11:52:39.178Z,1005.04
2018-05-08T11:53:39.159Z,1005.06
2018-05-08T11:54:39.163Z,1005.06
2018-05-08T11:55:39.141Z,1005.05
2018-05-08T11:56:39.123Z,1005.04
2018-05-08T11:57:39.224Z,1005.04
2018-05-08T11:58:39.102Z,1005.06
2018-05-08T11:59:39.085Z,1004.97
2018-05-08T12:00:39.080Z,1005.02
2018-05-08T12:01:39.080Z,1005.03
2018-05-08T12:02:39.156Z,1004.97
2018-05-08T12:03:39.033Z,1005.01
2018-05-08T12:04:39.033Z,1004.94
2018-05-08T12:05:39.017Z,1004.98